sensor_id;sensor_type;location;lat;lon;timestamp;temperature;humidity
30889;DHT22;51092;50.874;7.024;2023-08-24T00:00:08;19.20;99.90
30889;DHT22;51092;50.874;7.024;2023-08-24T00:01:12;19.20;99.90
30889;DHT22;51092;50.874;7.024;2023-08-24T00:02:14;19.20;99.90
30889;DHT22;51092;50.874;7.024;2023-08-24T00:03:16;19.20;99.90
30889;DHT22;51092;50.874;7.024;2023-08-24T00:04:17;19.20;99.90
30889;DHT22;51092;50.874;7.024;2023-08-24T00:05:20;19.20;99.90
30889;DHT22;51092;50.874;7.024;2023-08-24T00:06:22;19.20;99.90
30889;DHT22;51092;50.874;7.024;2023-08-24T00:07:24;19.20;99.90
30889;DHT22;51092;50.874;7.024;2023-08-24T00:08:26;19.20;99.90
30889;DHT22;51092;50.874;7.024;2023-08-24T00:09:29;19.20;99.90
30889;DHT22;51092;50.874;7.024;2023-08-24T00:10:30;19.20;99.90
30889;DHT22;51092;50.874;7.024;2023-08-24T00:11:33;19.20;99.90
30889;DHT22;51092;50.874;7.024;2023-08-24T00:12:34;19.10;99.90
30889;DHT22;51092;50.874;7.024;2023-08-24T00:13:37;19.10;99.90
30889;DHT22;51092;50.874;7.024;2023-08-24T00:14:39;19.10;99.90
30889;DHT22;51092;50.874;7.024;2023-08-24T00:15:42;19.10;99.90
30889;DHT22;51092;50.874;7.024;2023-08-24T00:16:44;19.10;99.90
30889;DHT22;51092;50.874;7.024;2023-08-24T00:17:46;19.00;99.90
30889;DHT22;51092;50.874;7.024;2023-08-24T00:18:48;19.00;99.90
30889;DHT22;51092;50.874;7.024;2023-08-24T00:19:50;19.00;99.90
30889;DHT22;51092;50.874;7.024;2023-08-24T00:20:52;19.00;99.90
30889;DHT22;51092;50.874;7.024;2023-08-24T00:21:53;19.00;99.90
30889;DHT22;51092;50.874;7.024;2023-08-24T00:22:56;19.00;99.90
30889;DHT22;51092;50.874;7.024;2023-08-24T00:23:57;18.90;99.90
30889;DHT22;51092;50.874;7.024;2023-08-24T00:25:00;18.90;99.90
30889;DHT22;51092;50.874;7.024;2023-08-24T00:26:02;18.90;99.90
30889;DHT22;51092;50.874;7.024;2023-08-24T00:27:04;18.90;99.90
30889;DHT22;51092;50.874;7.024;2023-08-24T00:28:06;18.90;99.90
30889;DHT22;51092;50.874;7.024;2023-08-24T00:29:08;18.90;99.90
30889;DHT22;51092;50.874;7.024;2023-08-24T00:31:25;18.90;99.90
30889;DHT22;51092;50.874;7.024;2023-08-24T00:32:27;18.80;99.90
30889;DHT22;51092;50.874;7.024;2023-08-24T00:33:34;18.90;99.90
30889;DHT22;51092;50.874;7.024;2023-08-24T00:34:37;18.90;99.90
30889;DHT22;51092;50.874;7.024;2023-08-24T00:35:38;18.90;99.90
30889;DHT22;51092;50.874;7.024;2023-08-24T00:36:40;18.90;99.90
30889;DHT22;51092;50.874;7.024;2023-08-24T00:37:41;18.90;99.90
30889;DHT22;51092;50.874;7.024;2023-08-24T00:38:44;18.90;99.90
30889;DHT22;51092;50.874;7.024;2023-08-24T00:39:46;18.90;99.90
30889;DHT22;51092;50.874;7.024;2023-08-24T00:40:48;18.90;99.90
30889;DHT22;51092;50.874;7.024;2023-08-24T00:41:50;18.90;99.90
30889;DHT22;51092;50.874;7.024;2023-08-24T00:42:53;18.90;99.90
30889;DHT22;51092;50.874;7.024;2023-08-24T00:43:55;18.90;99.90
30889;DHT22;51092;50.874;7.024;2023-08-24T00:45:04;18.90;99.90
30889;DHT22;51092;50.874;7.024;2023-08-24T00:46:09;18.90;99.90
30889;DHT22;51092;50.874;7.024;2023-08-24T00:47:15;18.80;99.90
30889;DHT22;51092;50.874;7.024;2023-08-24T00:48:16;18.80;99.90
30889;DHT22;51092;50.874;7.024;2023-08-24T00:49:18;18.80;99.90
30889;DHT22;51092;50.874;7.024;2023-08-24T00:50:19;18.80;99.90
30889;DHT22;51092;50.874;7.024;2023-08-24T00:51:22;18.80;99.90
30889;DHT22;51092;50.874;7.024;2023-08-24T00:52:25;18.80;99.90
30889;DHT22;51092;50.874;7.024;2023-08-24T00:53:29;18.80;99.90
30889;DHT22;51092;50.874;7.024;2023-08-24T00:54:43;18.80;99.90
30889;DHT22;51092;50.874;7.024;2023-08-24T00:55:46;18.80;99.90
30889;DHT22;51092;50.874;7.024;2023-08-24T00:56:50;18.80;99.90
30889;DHT22;51092;50.874;7.024;2023-08-24T00:57:52;18.70;99.90
30889;DHT22;51092;50.874;7.024;2023-08-24T00:58:54;18.80;99.90
30889;DHT22;51092;50.874;7.024;2023-08-24T00:59:57;18.80;99.90
30889;DHT22;51092;50.874;7.024;2023-08-24T01:01:00;18.80;99.90
30889;DHT22;51092;50.874;7.024;2023-08-24T01:02:02;18.80;99.90
30889;DHT22;51092;50.874;7.024;2023-08-24T01:03:05;18.80;99.90
30889;DHT22;51092;50.874;7.024;2023-08-24T01:04:06;18.80;99.90
30889;DHT22;51092;50.874;7.024;2023-08-24T01:05:09;18.80;99.90
30889;DHT22;51092;50.874;7.024;2023-08-24T01:06:10;18.80;99.90
30889;DHT22;51092;50.874;7.024;2023-08-24T01:07:14;18.70;99.90
30889;DHT22;51092;50.874;7.024;2023-08-24T01:08:16;18.70;99.90
30889;DHT22;51092;50.874;7.024;2023-08-24T01:09:19;18.70;99.90
30889;DHT22;51092;50.874;7.024;2023-08-24T01:10:22;18.70;99.90
30889;DHT22;51092;50.874;7.024;2023-08-24T01:11:40;18.70;99.90
30889;DHT22;51092;50.874;7.024;2023-08-24T01:12:55;18.60;99.90
30889;DHT22;51092;50.874;7.024;2023-08-24T01:14:04;18.70;99.90
30889;DHT22;51092;50.874;7.024;2023-08-24T01:15:12;18.60;99.90
30889;DHT22;51092;50.874;7.024;2023-08-24T01:16:19;18.60;99.90
30889;DHT22;51092;50.874;7.024;2023-08-24T01:17:24;18.60;99.90
30889;DHT22;51092;50.874;7.024;2023-08-24T01:18:30;18.60;99.90
30889;DHT22;51092;50.874;7.024;2023-08-24T01:19:37;18.60;99.90
30889;DHT22;51092;50.874;7.024;2023-08-24T01:20:42;18.60;99.90
30889;DHT22;51092;50.874;7.024;2023-08-24T01:21:45;18.60;99.90
30889;DHT22;51092;50.874;7.024;2023-08-24T01:22:55;18.60;99.90
30889;DHT22;51092;50.874;7.024;2023-08-24T01:24:03;18.60;99.90
30889;DHT22;51092;50.874;7.024;2023-08-24T01:25:13;18.60;99.90
30889;DHT22;51092;50.874;7.024;2023-08-24T01:26:20;18.60;99.90
30889;DHT22;51092;50.874;7.024;2023-08-24T01:27:23;18.60;99.90
30889;DHT22;51092;50.874;7.024;2023-08-24T01:28:26;18.60;99.90
30889;DHT22;51092;50.874;7.024;2023-08-24T01:29:28;18.60;99.90
30889;DHT22;51092;50.874;7.024;2023-08-24T01:30:31;18.60;99.90
30889;DHT22;51092;50.874;7.024;2023-08-24T01:31:33;18.50;99.90
30889;DHT22;51092;50.874;7.024;2023-08-24T01:32:36;18.50;99.90
30889;DHT22;51092;50.874;7.024;2023-08-24T01:33:39;18.50;99.90
30889;DHT22;51092;50.874;7.024;2023-08-24T01:34:42;18.40;99.90
30889;DHT22;51092;50.874;7.024;2023-08-24T01:35:43;18.50;99.90
30889;DHT22;51092;50.874;7.024;2023-08-24T01:36:46;18.50;99.90
30889;DHT22;51092;50.874;7.024;2023-08-24T01:37:48;18.40;99.90
30889;DHT22;51092;50.874;7.024;2023-08-24T01:39:04;18.40;99.90
30889;DHT22;51092;50.874;7.024;2023-08-24T01:40:14;18.40;99.90
30889;DHT22;51092;50.874;7.024;2023-08-24T01:41:22;18.40;99.90
30889;DHT22;51092;50.874;7.024;2023-08-24T01:42:29;18.40;99.90
30889;DHT22;51092;50.874;7.024;2023-08-24T01:43:36;18.40;99.90
30889;DHT22;51092;50.874;7.024;2023-08-24T01:44:56;18.30;99.90
30889;DHT22;51092;50.874;7.024;2023-08-24T01:46:00;18.40;99.90
30889;DHT22;51092;50.874;7.024;2023-08-24T01:47:05;18.40;99.90
30889;DHT22;51092;50.874;7.024;2023-08-24T01:48:09;18.30;99.90
30889;DHT22;51092;50.874;7.024;2023-08-24T01:49:13;18.30;99.90
30889;DHT22;51092;50.874;7.024;2023-08-24T01:50:43;18.30;99.90
30889;DHT22;51092;50.874;7.024;2023-08-24T01:51:46;18.30;99.90
30889;DHT22;51092;50.874;7.024;2023-08-24T01:52:48;18.30;99.90
30889;DHT22;51092;50.874;7.024;2023-08-24T01:53:51;18.30;99.90
30889;DHT22;51092;50.874;7.024;2023-08-24T01:54:53;18.30;99.90
30889;DHT22;51092;50.874;7.024;2023-08-24T01:55:54;18.20;99.90
30889;DHT22;51092;50.874;7.024;2023-08-24T01:56:59;18.20;99.90
30889;DHT22;51092;50.874;7.024;2023-08-24T01:58:00;18.30;99.90
30889;DHT22;51092;50.874;7.024;2023-08-24T01:59:03;18.20;99.90
30889;DHT22;51092;50.874;7.024;2023-08-24T02:00:06;18.20;99.90
30889;DHT22;51092;50.874;7.024;2023-08-24T02:01:09;18.20;99.90
30889;DHT22;51092;50.874;7.024;2023-08-24T02:02:11;18.20;99.90
30889;DHT22;51092;50.874;7.024;2023-08-24T02:03:13;18.20;99.90
30889;DHT22;51092;50.874;7.024;2023-08-24T02:04:21;18.20;99.90
30889;DHT22;51092;50.874;7.024;2023-08-24T02:05:23;18.20;99.90
30889;DHT22;51092;50.874;7.024;2023-08-24T02:06:31;18.20;99.90
30889;DHT22;51092;50.874;7.024;2023-08-24T02:07:35;18.10;99.90
30889;DHT22;51092;50.874;7.024;2023-08-24T02:08:36;18.10;99.90
30889;DHT22;51092;50.874;7.024;2023-08-24T02:09:38;18.20;99.90
30889;DHT22;51092;50.874;7.024;2023-08-24T02:10:40;18.10;99.90
30889;DHT22;51092;50.874;7.024;2023-08-24T02:11:42;18.10;99.90
30889;DHT22;51092;50.874;7.024;2023-08-24T02:12:45;18.10;99.90
30889;DHT22;51092;50.874;7.024;2023-08-24T02:13:47;18.20;99.90
30889;DHT22;51092;50.874;7.024;2023-08-24T02:14:49;18.10;99.90
30889;DHT22;51092;50.874;7.024;2023-08-24T02:16:01;18.10;99.90
30889;DHT22;51092;50.874;7.024;2023-08-24T02:17:02;18.20;99.90
30889;DHT22;51092;50.874;7.024;2023-08-24T02:18:04;18.20;99.90
30889;DHT22;51092;50.874;7.024;2023-08-24T02:19:06;18.20;99.90
30889;DHT22;51092;50.874;7.024;2023-08-24T02:20:07;18.20;99.90
30889;DHT22;51092;50.874;7.024;2023-08-24T02:21:10;18.20;99.90
30889;DHT22;51092;50.874;7.024;2023-08-24T02:22:13;18.20;99.90
30889;DHT22;51092;50.874;7.024;2023-08-24T02:23:15;18.20;99.90
30889;DHT22;51092;50.874;7.024;2023-08-24T02:24:17;18.20;99.90
30889;DHT22;51092;50.874;7.024;2023-08-24T02:25:20;18.20;99.90
30889;DHT22;51092;50.874;7.024;2023-08-24T02:26:21;18.20;99.90
30889;DHT22;51092;50.874;7.024;2023-08-24T02:27:24;18.20;99.90
30889;DHT22;51092;50.874;7.024;2023-08-24T02:28:27;18.20;99.90
30889;DHT22;51092;50.874;7.024;2023-08-24T02:29:29;18.30;99.90
30889;DHT22;51092;50.874;7.024;2023-08-24T02:30:31;18.20;99.90
30889;DHT22;51092;50.874;7.024;2023-08-24T02:31:34;18.20;99.90
30889;DHT22;51092;50.874;7.024;2023-08-24T02:32:35;18.20;99.90
30889;DHT22;51092;50.874;7.024;2023-08-24T02:33:37;18.20;99.90
30889;DHT22;51092;50.874;7.024;2023-08-24T02:34:38;18.20;99.90
30889;DHT22;51092;50.874;7.024;2023-08-24T02:35:40;18.20;99.90
30889;DHT22;51092;50.874;7.024;2023-08-24T02:36:41;18.20;99.90
30889;DHT22;51092;50.874;7.024;2023-08-24T02:37:44;18.20;99.90
30889;DHT22;51092;50.874;7.024;2023-08-24T02:38:45;18.20;99.90
30889;DHT22;51092;50.874;7.024;2023-08-24T02:39:49;18.20;99.90
30889;DHT22;51092;50.874;7.024;2023-08-24T02:41:01;18.20;99.90
30889;DHT22;51092;50.874;7.024;2023-08-24T02:42:03;18.20;99.90
30889;DHT22;51092;50.874;7.024;2023-08-24T02:43:05;18.20;99.90
30889;DHT22;51092;50.874;7.024;2023-08-24T02:44:08;18.20;99.90
30889;DHT22;51092;50.874;7.024;2023-08-24T02:45:10;18.20;99.90
30889;DHT22;51092;50.874;7.024;2023-08-24T02:46:12;18.20;99.90
30889;DHT22;51092;50.874;7.024;2023-08-24T02:47:14;18.20;99.90
30889;DHT22;51092;50.874;7.024;2023-08-24T02:48:17;18.30;99.90
30889;DHT22;51092;50.874;7.024;2023-08-24T02:49:18;18.30;99.90
30889;DHT22;51092;50.874;7.024;2023-08-24T02:50:21;18.30;99.90
30889;DHT22;51092;50.874;7.024;2023-08-24T02:51:23;18.20;99.90
30889;DHT22;51092;50.874;7.024;2023-08-24T02:52:26;18.20;99.90
30889;DHT22;51092;50.874;7.024;2023-08-24T02:53:27;18.20;99.90
30889;DHT22;51092;50.874;7.024;2023-08-24T02:54:30;18.20;99.90
30889;DHT22;51092;50.874;7.024;2023-08-24T02:55:32;18.20;99.90
30889;DHT22;51092;50.874;7.024;2023-08-24T02:56:35;18.20;99.90
30889;DHT22;51092;50.874;7.024;2023-08-24T02:57:36;18.20;99.90
30889;DHT22;51092;50.874;7.024;2023-08-24T02:58:39;18.20;99.90
30889;DHT22;51092;50.874;7.024;2023-08-24T02:59:45;18.10;99.90
30889;DHT22;51092;50.874;7.024;2023-08-24T03:00:47;18.10;99.90
30889;DHT22;51092;50.874;7.024;2023-08-24T03:01:49;18.10;99.90
30889;DHT22;51092;50.874;7.024;2023-08-24T03:02:51;18.10;99.90
30889;DHT22;51092;50.874;7.024;2023-08-24T03:03:53;18.10;99.90
30889;DHT22;51092;50.874;7.024;2023-08-24T03:04:55;18.10;99.90
30889;DHT22;51092;50.874;7.024;2023-08-24T03:06:00;18.10;99.90
30889;DHT22;51092;50.874;7.024;2023-08-24T03:07:03;18.20;99.90
30889;DHT22;51092;50.874;7.024;2023-08-24T03:08:05;18.20;99.90
30889;DHT22;51092;50.874;7.024;2023-08-24T03:09:06;18.20;99.90
30889;DHT22;51092;50.874;7.024;2023-08-24T03:10:09;18.20;99.90
30889;DHT22;51092;50.874;7.024;2023-08-24T03:11:11;18.30;99.90
30889;DHT22;51092;50.874;7.024;2023-08-24T03:12:13;18.30;99.90
30889;DHT22;51092;50.874;7.024;2023-08-24T03:13:14;18.30;99.90
30889;DHT22;51092;50.874;7.024;2023-08-24T03:14:17;18.30;99.90
30889;DHT22;51092;50.874;7.024;2023-08-24T03:15:20;18.30;99.90
30889;DHT22;51092;50.874;7.024;2023-08-24T03:16:22;18.40;99.90
30889;DHT22;51092;50.874;7.024;2023-08-24T03:17:24;18.40;99.90
30889;DHT22;51092;50.874;7.024;2023-08-24T03:18:27;18.40;99.90
30889;DHT22;51092;50.874;7.024;2023-08-24T03:19:29;18.40;99.90
30889;DHT22;51092;50.874;7.024;2023-08-24T03:20:32;18.40;99.90
30889;DHT22;51092;50.874;7.024;2023-08-24T03:21:33;18.40;99.90
30889;DHT22;51092;50.874;7.024;2023-08-24T03:22:35;18.40;99.90
30889;DHT22;51092;50.874;7.024;2023-08-24T03:23:36;18.50;99.90
30889;DHT22;51092;50.874;7.024;2023-08-24T03:24:38;18.50;99.90
30889;DHT22;51092;50.874;7.024;2023-08-24T03:25:40;18.50;99.90
30889;DHT22;51092;50.874;7.024;2023-08-24T03:26:42;18.50;99.90
30889;DHT22;51092;50.874;7.024;2023-08-24T03:27:44;18.50;99.90
30889;DHT22;51092;50.874;7.024;2023-08-24T03:28:45;18.60;99.90
30889;DHT22;51092;50.874;7.024;2023-08-24T03:29:46;18.60;99.90
30889;DHT22;51092;50.874;7.024;2023-08-24T03:30:51;18.60;99.90
30889;DHT22;51092;50.874;7.024;2023-08-24T03:31:53;18.70;99.90
30889;DHT22;51092;50.874;7.024;2023-08-24T03:32:56;18.70;99.90
30889;DHT22;51092;50.874;7.024;2023-08-24T03:33:58;18.70;99.90
30889;DHT22;51092;50.874;7.024;2023-08-24T03:35:01;18.70;99.90
30889;DHT22;51092;50.874;7.024;2023-08-24T03:36:04;18.60;99.90
30889;DHT22;51092;50.874;7.024;2023-08-24T03:37:05;18.60;99.90
30889;DHT22;51092;50.874;7.024;2023-08-24T03:38:08;18.50;99.90
30889;DHT22;51092;50.874;7.024;2023-08-24T03:39:09;18.50;99.90
30889;DHT22;51092;50.874;7.024;2023-08-24T03:40:13;18.50;99.90
30889;DHT22;51092;50.874;7.024;2023-08-24T03:41:15;18.40;99.90
30889;DHT22;51092;50.874;7.024;2023-08-24T03:42:17;18.40;99.90
30889;DHT22;51092;50.874;7.024;2023-08-24T03:43:19;18.40;99.90
30889;DHT22;51092;50.874;7.024;2023-08-24T03:44:20;18.40;99.90
30889;DHT22;51092;50.874;7.024;2023-08-24T03:45:22;18.40;99.90
30889;DHT22;51092;50.874;7.024;2023-08-24T03:46:26;18.40;99.90
30889;DHT22;51092;50.874;7.024;2023-08-24T03:47:33;18.40;99.90
30889;DHT22;51092;50.874;7.024;2023-08-24T03:48:36;18.40;99.90
30889;DHT22;51092;50.874;7.024;2023-08-24T03:49:37;18.30;99.90
30889;DHT22;51092;50.874;7.024;2023-08-24T03:50:40;18.40;99.90
30889;DHT22;51092;50.874;7.024;2023-08-24T03:51:41;18.40;99.90
30889;DHT22;51092;50.874;7.024;2023-08-24T03:52:44;18.40;99.90
30889;DHT22;51092;50.874;7.024;2023-08-24T03:53:46;18.40;99.90
30889;DHT22;51092;50.874;7.024;2023-08-24T03:54:48;18.40;99.90
30889;DHT22;51092;50.874;7.024;2023-08-24T03:55:51;18.40;99.90
30889;DHT22;51092;50.874;7.024;2023-08-24T03:56:53;18.50;99.90
30889;DHT22;51092;50.874;7.024;2023-08-24T03:57:55;18.50;99.90
30889;DHT22;51092;50.874;7.024;2023-08-24T03:58:58;18.50;99.90
30889;DHT22;51092;50.874;7.024;2023-08-24T03:59:59;18.50;99.90
30889;DHT22;51092;50.874;7.024;2023-08-24T04:01:02;18.50;99.90
30889;DHT22;51092;50.874;7.024;2023-08-24T04:02:04;18.50;99.90
30889;DHT22;51092;50.874;7.024;2023-08-24T04:03:06;18.50;99.90
30889;DHT22;51092;50.874;7.024;2023-08-24T04:04:07;18.50;99.90
30889;DHT22;51092;50.874;7.024;2023-08-24T04:05:09;18.50;99.90
30889;DHT22;51092;50.874;7.024;2023-08-24T04:06:11;18.60;99.90
30889;DHT22;51092;50.874;7.024;2023-08-24T04:07:16;18.60;99.90
30889;DHT22;51092;50.874;7.024;2023-08-24T04:08:18;18.60;99.90
30889;DHT22;51092;50.874;7.024;2023-08-24T04:09:20;18.60;99.90
30889;DHT22;51092;50.874;7.024;2023-08-24T04:10:22;18.60;99.90
30889;DHT22;51092;50.874;7.024;2023-08-24T04:11:24;18.60;99.90
30889;DHT22;51092;50.874;7.024;2023-08-24T04:12:26;18.60;99.90
30889;DHT22;51092;50.874;7.024;2023-08-24T04:13:29;18.60;99.90
30889;DHT22;51092;50.874;7.024;2023-08-24T04:14:42;18.60;99.90
30889;DHT22;51092;50.874;7.024;2023-08-24T04:15:47;18.60;99.90
30889;DHT22;51092;50.874;7.024;2023-08-24T04:16:49;18.70;99.90
30889;DHT22;51092;50.874;7.024;2023-08-24T04:17:51;18.70;99.90
30889;DHT22;51092;50.874;7.024;2023-08-24T04:18:54;18.70;99.90
30889;DHT22;51092;50.874;7.024;2023-08-24T04:19:56;18.70;99.90
30889;DHT22;51092;50.874;7.024;2023-08-24T04:20:57;18.70;99.90
30889;DHT22;51092;50.874;7.024;2023-08-24T04:22:00;18.80;99.90
30889;DHT22;51092;50.874;7.024;2023-08-24T04:23:02;18.80;99.90
30889;DHT22;51092;50.874;7.024;2023-08-24T04:24:05;18.90;99.90
30889;DHT22;51092;50.874;7.024;2023-08-24T04:25:07;18.90;99.90
30889;DHT22;51092;50.874;7.024;2023-08-24T04:26:10;18.90;99.90
30889;DHT22;51092;50.874;7.024;2023-08-24T04:27:13;18.90;99.90
30889;DHT22;51092;50.874;7.024;2023-08-24T04:28:15;18.90;99.90
30889;DHT22;51092;50.874;7.024;2023-08-24T04:29:19;18.90;99.90
30889;DHT22;51092;50.874;7.024;2023-08-24T04:30:36;18.80;99.90
30889;DHT22;51092;50.874;7.024;2023-08-24T04:31:40;18.90;99.90
30889;DHT22;51092;50.874;7.024;2023-08-24T04:32:42;18.90;99.90
30889;DHT22;51092;50.874;7.024;2023-08-24T04:33:46;18.80;99.90
30889;DHT22;51092;50.874;7.024;2023-08-24T04:34:47;18.80;99.90
30889;DHT22;51092;50.874;7.024;2023-08-24T04:35:49;18.80;99.90
30889;DHT22;51092;50.874;7.024;2023-08-24T04:36:51;18.80;99.90
30889;DHT22;51092;50.874;7.024;2023-08-24T04:37:53;18.80;99.90
30889;DHT22;51092;50.874;7.024;2023-08-24T04:38:56;18.80;99.90
30889;DHT22;51092;50.874;7.024;2023-08-24T04:39:59;18.70;99.90
30889;DHT22;51092;50.874;7.024;2023-08-24T04:41:00;18.70;99.90
30889;DHT22;51092;50.874;7.024;2023-08-24T04:42:02;18.70;99.90
30889;DHT22;51092;50.874;7.024;2023-08-24T04:43:05;18.70;99.90
30889;DHT22;51092;50.874;7.024;2023-08-24T04:44:06;18.70;99.90
30889;DHT22;51092;50.874;7.024;2023-08-24T04:45:09;18.70;99.90
30889;DHT22;51092;50.874;7.024;2023-08-24T04:46:11;18.70;99.90
30889;DHT22;51092;50.874;7.024;2023-08-24T04:47:13;18.70;99.90
30889;DHT22;51092;50.874;7.024;2023-08-24T04:48:15;18.70;99.90
30889;DHT22;51092;50.874;7.024;2023-08-24T04:49:18;18.70;99.90
30889;DHT22;51092;50.874;7.024;2023-08-24T04:50:19;18.70;99.90
30889;DHT22;51092;50.874;7.024;2023-08-24T04:51:21;18.70;99.90
30889;DHT22;51092;50.874;7.024;2023-08-24T04:52:22;18.70;99.90
30889;DHT22;51092;50.874;7.024;2023-08-24T04:53:26;18.70;99.90
30889;DHT22;51092;50.874;7.024;2023-08-24T04:54:27;18.60;99.90
30889;DHT22;51092;50.874;7.024;2023-08-24T04:55:30;18.70;99.90
30889;DHT22;51092;50.874;7.024;2023-08-24T04:56:31;18.60;99.90
30889;DHT22;51092;50.874;7.024;2023-08-24T04:57:34;18.60;99.90
30889;DHT22;51092;50.874;7.024;2023-08-24T04:58:35;18.60;99.90
30889;DHT22;51092;50.874;7.024;2023-08-24T04:59:38;18.50;99.90
30889;DHT22;51092;50.874;7.024;2023-08-24T05:00:40;18.50;99.90
30889;DHT22;51092;50.874;7.024;2023-08-24T05:01:42;18.40;99.90
30889;DHT22;51092;50.874;7.024;2023-08-24T05:02:44;18.40;99.90
30889;DHT22;51092;50.874;7.024;2023-08-24T05:03:46;18.40;99.90
30889;DHT22;51092;50.874;7.024;2023-08-24T05:04:49;18.40;99.90
30889;DHT22;51092;50.874;7.024;2023-08-24T05:05:52;18.40;99.90
30889;DHT22;51092;50.874;7.024;2023-08-24T05:06:53;18.30;99.90
30889;DHT22;51092;50.874;7.024;2023-08-24T05:07:56;18.30;99.90
30889;DHT22;51092;50.874;7.024;2023-08-24T05:08:57;18.30;99.90
30889;DHT22;51092;50.874;7.024;2023-08-24T05:09:59;18.20;99.90
30889;DHT22;51092;50.874;7.024;2023-08-24T05:11:01;18.10;99.90
30889;DHT22;51092;50.874;7.024;2023-08-24T05:12:03;18.10;99.90
30889;DHT22;51092;50.874;7.024;2023-08-24T05:13:06;18.10;99.90
30889;DHT22;51092;50.874;7.024;2023-08-24T05:14:07;18.10;99.90
30889;DHT22;51092;50.874;7.024;2023-08-24T05:15:10;18.10;99.90
30889;DHT22;51092;50.874;7.024;2023-08-24T05:16:12;18.10;99.90
30889;DHT22;51092;50.874;7.024;2023-08-24T05:17:15;18.10;99.90
30889;DHT22;51092;50.874;7.024;2023-08-24T05:18:17;18.10;99.90
30889;DHT22;51092;50.874;7.024;2023-08-24T05:19:19;18.10;99.90
30889;DHT22;51092;50.874;7.024;2023-08-24T05:20:22;18.10;99.90
30889;DHT22;51092;50.874;7.024;2023-08-24T05:21:25;18.10;99.90
30889;DHT22;51092;50.874;7.024;2023-08-24T05:22:26;18.10;99.90
30889;DHT22;51092;50.874;7.024;2023-08-24T05:23:29;18.10;99.90
30889;DHT22;51092;50.874;7.024;2023-08-24T05:24:30;18.20;99.90
30889;DHT22;51092;50.874;7.024;2023-08-24T05:25:33;18.10;99.90
30889;DHT22;51092;50.874;7.024;2023-08-24T05:26:35;18.10;99.90
30889;DHT22;51092;50.874;7.024;2023-08-24T05:27:39;18.10;99.90
30889;DHT22;51092;50.874;7.024;2023-08-24T05:28:41;18.10;99.90
30889;DHT22;51092;50.874;7.024;2023-08-24T05:29:44;18.10;99.90
30889;DHT22;51092;50.874;7.024;2023-08-24T05:30:45;18.10;99.90
30889;DHT22;51092;50.874;7.024;2023-08-24T05:31:48;18.10;99.90
30889;DHT22;51092;50.874;7.024;2023-08-24T05:32:49;18.10;99.90
30889;DHT22;51092;50.874;7.024;2023-08-24T05:33:52;18.20;99.90
30889;DHT22;51092;50.874;7.024;2023-08-24T05:34:53;18.10;99.90
30889;DHT22;51092;50.874;7.024;2023-08-24T05:35:57;18.20;99.90
30889;DHT22;51092;50.874;7.024;2023-08-24T05:36:59;18.10;99.90
30889;DHT22;51092;50.874;7.024;2023-08-24T05:38:01;18.20;99.90
30889;DHT22;51092;50.874;7.024;2023-08-24T05:39:03;18.20;99.90
30889;DHT22;51092;50.874;7.024;2023-08-24T05:40:06;18.20;99.90
30889;DHT22;51092;50.874;7.024;2023-08-24T05:41:08;18.30;99.90
30889;DHT22;51092;50.874;7.024;2023-08-24T05:42:10;18.30;99.90
30889;DHT22;51092;50.874;7.024;2023-08-24T05:43:11;18.30;99.90
30889;DHT22;51092;50.874;7.024;2023-08-24T05:44:13;18.30;99.90
30889;DHT22;51092;50.874;7.024;2023-08-24T05:45:15;18.30;99.90
30889;DHT22;51092;50.874;7.024;2023-08-24T05:46:17;18.40;99.90
30889;DHT22;51092;50.874;7.024;2023-08-24T05:47:19;18.30;99.90
30889;DHT22;51092;50.874;7.024;2023-08-24T05:48:20;18.30;99.90
30889;DHT22;51092;50.874;7.024;2023-08-24T05:49:23;18.30;99.90
30889;DHT22;51092;50.874;7.024;2023-08-24T05:50:25;18.30;99.90
30889;DHT22;51092;50.874;7.024;2023-08-24T05:51:29;18.40;99.90
30889;DHT22;51092;50.874;7.024;2023-08-24T05:52:31;18.40;99.90
30889;DHT22;51092;50.874;7.024;2023-08-24T05:53:32;18.40;99.90
30889;DHT22;51092;50.874;7.024;2023-08-24T05:54:36;18.40;99.90
30889;DHT22;51092;50.874;7.024;2023-08-24T05:55:37;18.50;99.90
30889;DHT22;51092;50.874;7.024;2023-08-24T05:56:40;18.50;99.90
30889;DHT22;51092;50.874;7.024;2023-08-24T05:57:43;18.50;99.90
30889;DHT22;51092;50.874;7.024;2023-08-24T05:58:46;18.50;99.90
30889;DHT22;51092;50.874;7.024;2023-08-24T05:59:47;18.50;99.90
30889;DHT22;51092;50.874;7.024;2023-08-24T06:00:56;18.50;99.90
30889;DHT22;51092;50.874;7.024;2023-08-24T06:02:10;18.50;99.90
30889;DHT22;51092;50.874;7.024;2023-08-24T06:03:12;18.50;99.90
30889;DHT22;51092;50.874;7.024;2023-08-24T06:04:14;18.50;99.90
30889;DHT22;51092;50.874;7.024;2023-08-24T06:05:16;18.50;99.90
30889;DHT22;51092;50.874;7.024;2023-08-24T06:06:19;18.50;99.90
30889;DHT22;51092;50.874;7.024;2023-08-24T06:07:23;18.60;99.90
30889;DHT22;51092;50.874;7.024;2023-08-24T06:08:25;18.60;99.90
30889;DHT22;51092;50.874;7.024;2023-08-24T06:09:27;18.60;99.90
30889;DHT22;51092;50.874;7.024;2023-08-24T06:10:29;18.60;99.90
30889;DHT22;51092;50.874;7.024;2023-08-24T06:11:32;18.60;99.90
30889;DHT22;51092;50.874;7.024;2023-08-24T06:12:33;18.60;99.90
30889;DHT22;51092;50.874;7.024;2023-08-24T06:13:36;18.60;99.90
30889;DHT22;51092;50.874;7.024;2023-08-24T06:14:37;18.60;99.90
30889;DHT22;51092;50.874;7.024;2023-08-24T06:15:40;18.60;99.90
30889;DHT22;51092;50.874;7.024;2023-08-24T06:16:43;18.60;99.90
30889;DHT22;51092;50.874;7.024;2023-08-24T06:17:45;18.60;99.90
30889;DHT22;51092;50.874;7.024;2023-08-24T06:18:49;18.60;99.90
30889;DHT22;51092;50.874;7.024;2023-08-24T06:19:52;18.60;99.90
30889;DHT22;51092;50.874;7.024;2023-08-24T06:20:54;18.60;99.90
30889;DHT22;51092;50.874;7.024;2023-08-24T06:21:56;18.60;99.90
30889;DHT22;51092;50.874;7.024;2023-08-24T06:22:59;18.70;99.90
30889;DHT22;51092;50.874;7.024;2023-08-24T06:24:02;18.70;99.90
30889;DHT22;51092;50.874;7.024;2023-08-24T06:25:06;18.80;99.90
30889;DHT22;51092;50.874;7.024;2023-08-24T06:26:09;18.70;99.90
30889;DHT22;51092;50.874;7.024;2023-08-24T06:27:11;18.80;99.90
30889;DHT22;51092;50.874;7.024;2023-08-24T06:28:14;18.80;99.90
30889;DHT22;51092;50.874;7.024;2023-08-24T06:29:15;18.80;99.90
30889;DHT22;51092;50.874;7.024;2023-08-24T06:30:18;18.80;99.90
30889;DHT22;51092;50.874;7.024;2023-08-24T06:31:19;18.80;99.90
30889;DHT22;51092;50.874;7.024;2023-08-24T06:32:22;18.80;99.90
30889;DHT22;51092;50.874;7.024;2023-08-24T06:33:27;18.80;99.90
30889;DHT22;51092;50.874;7.024;2023-08-24T06:34:31;18.80;99.90
30889;DHT22;51092;50.874;7.024;2023-08-24T06:35:33;18.90;99.90
30889;DHT22;51092;50.874;7.024;2023-08-24T06:36:35;19.00;99.90
30889;DHT22;51092;50.874;7.024;2023-08-24T06:37:37;19.10;99.90
30889;DHT22;51092;50.874;7.024;2023-08-24T06:38:40;19.10;99.90